| time (UTC) | temp C | wind direction | speed KPH | gust KPH | rain 1hr cm | rain 24hr cm | rain mn cm | humidity % | barometer mb |
| 20260507002500 | 17 | 181 | 6.4 | 29.0 | 0.00 | 0.00 | 0.00 | 70 | 1008.2 |
| 20260507002001 | 17 | 174 | 8.0 | 29.0 | 0.00 | 0.00 | 0.00 | 70 | 1008.3 |
| 20260507001501 | 17 | 178 | 6.4 | 27.4 | 0.00 | 0.00 | 0.00 | 70 | 1008.2 |
| 20260507000500 | 17 | 194 | 4.8 | 33.8 | 0.00 | 0.00 | 0.00 | 70 | 1008.3 |
| 20260507000002 | 17 | 170 | 4.8 | 25.7 | 0.00 | 0.00 | 0.00 | 70 | 1008.1 |
| 20260506235501 | 17 | 168 | 4.8 | 25.7 | 0.00 | 0.00 | 0.00 | 70 | 1008.2 |
| 20260506235002 | 17 | 171 | 4.8 | 22.5 | 0.00 | 0.00 | 0.00 | 69 | 1008.0 |
| 20260506234500 | 17 | 177 | 3.2 | 24.1 | 0.00 | 0.00 | 0.00 | 69 | 1008.0 |
| 20260506234001 | 17 | 170 | 8.0 | 32.2 | 0.00 | 0.00 | 0.00 | 69 | 1008.0 |
| 20260506233500 | 17 | 171 | 8.0 | 32.2 | 0.00 | 0.00 | 0.00 | 69 | 1007.9 |
| 20260506231001 | 17 | 163 | 6.4 | 32.2 | 0.00 | 0.00 | 0.00 | 68 | 1007.9 |
| 20260506230501 | 17 | 152 | 8.0 | 32.2 | 0.00 | 0.00 | 0.00 | 68 | 1007.9 |
| 20260506230002 | 18 | 157 | 8.0 | 37.0 | 0.00 | 0.00 | 0.00 | 68 | 1007.7 |
| 20260506225501 | 18 | 160 | 8.0 | 37.0 | 0.00 | 0.00 | 0.00 | 68 | 1007.8 |
| 20260506225001 | 18 | 158 | 6.4 | 30.6 | 0.00 | 0.00 | 0.00 | 68 | 1007.6 |
| 20260506224500 | 18 | 162 | 8.0 | 30.6 | 0.00 | 0.00 | 0.00 | 67 | 1007.7 |
| 20260506224002 | 18 | 167 | 8.0 | 30.6 | 0.00 | 0.00 | 0.00 | 67 | 1007.8 |
| 20260506223001 | 18 | 174 | 14.5 | 37.0 | 0.00 | 0.00 | 0.00 | 67 | 1007.7 |
| 20260506222001 | 18 | 177 | 9.7 | 37.0 | 0.00 | 0.00 | 0.00 | 67 | 1007.8 |
| 20260506221500 | 18 | 189 | 9.7 | 37.0 | 0.00 | 0.00 | 0.00 | 67 | 1007.9 |
| 20260506221001 | 18 | 182 | 9.7 | 30.6 | 0.00 | 0.00 | 0.00 | 67 | 1007.7 |
| 20260506220500 | 18 | 182 | 9.7 | 30.6 | 0.00 | 0.00 | 0.00 | 67 | 1007.6 |
| 20260506220002 | 18 | 182 | 9.7 | 30.6 | 0.00 | 0.00 | 0.00 | 67 | 1007.7 |
| 20260506215500 | 18 | 177 | 9.7 | 32.2 | 0.00 | 0.00 | 0.00 | 66 | 1007.6 |
| 20260506215002 | 18 | 179 | 8.0 | 32.2 | 0.00 | 0.00 | 0.00 | 66 | 1007.5 |
| 20260506214500 | 18 | 186 | 9.7 | 30.6 | 0.00 | 0.00 | 0.00 | 66 | 1007.6 |
| 20260506213001 | 18 | 176 | 9.7 | 37.0 | 0.00 | 0.00 | 0.00 | 65 | 1007.6 |
| 20260506212500 | 18 | 178 | 12.9 | 46.7 | 0.00 | 0.00 | 0.00 | 65 | 1007.5 |
| 20260506211501 | 18 | 170 | 8.0 | 35.4 | 0.00 | 0.00 | 0.00 | 65 | 1007.5 |
| 20260506210501 | 19 | 173 | 11.3 | 40.2 | 0.00 | 0.00 | 0.00 | 64 | 1007.4 |
| 20260506210001 | 19 | 177 | 14.5 | 40.2 | 0.00 | 0.00 | 0.00 | 64 | 1007.3 |
| 20260506205501 | 19 | 174 | 17.7 | 43.5 | 0.00 | 0.00 | 0.00 | 64 | 1007.4 |
| 20260506205003 | 19 | 171 | 17.7 | 43.5 | 0.00 | 0.00 | 0.00 | 63 | 1007.3 |
| 20260506204501 | 19 | 178 | 14.5 | 35.4 | 0.00 | 0.00 | 0.00 | 63 | 1007.2 |
| 20260506204003 | 19 | 181 | 16.1 | 38.6 | 0.00 | 0.00 | 0.00 | 63 | 1007.4 |
| 20260506203500 | 19 | 179 | 16.1 | 38.6 | 0.00 | 0.00 | 0.00 | 63 | 1007.5 |
| 20260506203001 | 19 | 182 | 12.9 | 40.2 | 0.00 | 0.00 | 0.00 | 63 | 1007.5 |
| 20260506202501 | 19 | 178 | 11.3 | 40.2 | 0.00 | 0.00 | 0.00 | 62 | 1007.3 |
| 20260506202002 | 20 | 182 | 8.0 | 30.6 | 0.00 | 0.00 | 0.00 | 62 | 1007.3 |
| 20260506201501 | 20 | 179 | 9.7 | 30.6 | 0.00 | 0.00 | 0.00 | 62 | 1007.3 |
| 20260506201003 | 20 | 185 | 11.3 | 33.8 | 0.00 | 0.00 | 0.00 | 62 | 1007.2 |
| 20260506200500 | 20 | 189 | 11.3 | 35.4 | 0.00 | 0.00 | 0.00 | 61 | 1007.2 |
| 20260506195501 | 20 | 182 | 11.3 | 35.4 | 0.00 | 0.00 | 0.00 | 61 | 1007.1 |
| 20260506195001 | 20 | 182 | 11.3 | 35.4 | 0.00 | 0.00 | 0.00 | 61 | 1007.1 |
| 20260506194501 | 20 | 174 | 9.7 | 32.2 | 0.00 | 0.00 | 0.00 | 61 | 1007.0 |
| 20260506194002 | 20 | 168 | 9.7 | 32.2 | 0.00 | 0.00 | 0.00 | 60 | 1007.1 |
| 20260506193501 | 20 | 166 | 8.0 | 29.0 | 0.00 | 0.00 | 0.00 | 60 | 1007.0 |
| 20260506193002 | 20 | 172 | 4.8 | 22.5 | 0.00 | 0.00 | 0.00 | 60 | 1007.1 |
| 20260506192501 | 20 | 175 | 3.2 | 19.3 | 0.00 | 0.00 | 0.00 | 60 | 1007.1 |
| 20260506192002 | 20 | 171 | 4.8 | 22.5 | 0.00 | 0.00 | 0.00 | 59 | 1007.1 |
| 20260506191500 | 20 | 179 | 6.4 | 22.5 | 0.00 | 0.00 | 0.00 | 59 | 1007.1 |
| 20260506191001 | 20 | 184 | 8.0 | 27.4 | 0.00 | 0.00 | 0.00 | 59 | 1007.1 |
| 20260506190501 | 20 | 184 | 8.0 | 29.0 | 0.00 | 0.00 | 0.00 | 59 | 1007.0 |
| 20260506190002 | 20 | 183 | 9.7 | 30.6 | 0.00 | 0.00 | 0.00 | 59 | 1006.9 |
| 20260506185501 | 20 | 185 | 6.4 | 30.6 | 0.00 | 0.00 | 0.00 | 58 | 1006.8 |
| 20260506185001 | 20 | 179 | 3.2 | 30.6 | 0.00 | 0.00 | 0.00 | 58 | 1006.7 |
| 20260506184001 | 20 | 172 | 3.2 | 20.9 | 0.00 | 0.00 | 0.00 | 57 | 1006.6 |
| 20260506183002 | 20 | 162 | 3.2 | 27.4 | 0.00 | 0.00 | 0.00 | 57 | 1006.3 |
| 20260506182501 | 20 | 158 | 1.6 | 27.4 | 0.00 | 0.00 | 0.00 | 57 | 1006.1 |
| 20260506182003 | 21 | 173 | 1.6 | 20.9 | 0.00 | 0.00 | 0.00 | 56 | 1006.2 |
| 20260506181502 | 21 | 179 | 3.2 | 20.9 | 0.00 | 0.00 | 0.00 | 56 | 1006.1 |
| 20260506181002 | 21 | 177 | 3.2 | 20.9 | 0.00 | 0.00 | 0.00 | 56 | 1006.2 |
| 20260506180501 | 21 | 174 | 3.2 | 20.9 | 0.00 | 0.00 | 0.00 | 55 | 1006.2 |
| 20260506175500 | 21 | 177 | 6.4 | 33.8 | 0.00 | 0.00 | 0.00 | 54 | 1006.1 |
| 20260506175001 | 21 | 177 | 6.4 | 33.8 | 0.00 | 0.00 | 0.00 | 54 | 1006.0 |
| 20260506174500 | 21 | 186 | 8.0 | 29.0 | 0.00 | 0.00 | 0.00 | 54 | 1006.0 |
| 20260506174001 | 21 | 189 | 11.3 | 32.2 | 0.00 | 0.00 | 0.00 | 53 | 1006.1 |
| 20260506173501 | 21 | 194 | 11.3 | 32.2 | 0.00 | 0.00 | 0.00 | 53 | 1006.2 |
| 20260506173002 | 21 | 197 | 14.5 | 35.4 | 0.00 | 0.00 | 0.00 | 53 | 1006.2 |
| 20260506172501 | 22 | 195 | 14.5 | 48.3 | 0.00 | 0.00 | 0.00 | 52 | 1006.4 |
| 20260506172001 | 22 | 189 | 11.3 | 48.3 | 0.00 | 0.00 | 0.00 | 53 | 1006.1 |
| 20260506171501 | 22 | 181 | 9.7 | 38.6 | 0.00 | 0.00 | 0.00 | 53 | 1006.1 |
| 20260506171002 | 22 | 179 | 3.2 | 38.6 | 0.00 | 0.00 | 0.00 | 53 | 1006.0 |
| 20260506170501 | 22 | 172 | 6.4 | 30.6 | 0.00 | 0.00 | 0.00 | 53 | 1006.0 |
| 20260506170001 | 22 | 172 | 8.0 | 30.6 | 0.00 | 0.00 | 0.00 | 53 | 1006.1 |
| 20260506165500 | 22 | 178 | 8.0 | 29.0 | 0.00 | 0.00 | 0.00 | 52 | 1006.1 |
| 20260506164500 | 22 | 185 | 12.9 | 33.8 | 0.00 | 0.00 | 0.00 | 52 | 1006.2 |
| 20260506163001 | 23 | 167 | 3.2 | 20.9 | 0.00 | 0.00 | 0.00 | 51 | 1006.4 |
| 20260506162501 | 23 | 172 | 3.2 | 25.7 | 0.00 | 0.00 | 0.00 | 51 | 1006.3 |
| 20260506161501 | 23 | 161 | 3.2 | 25.7 | 0.00 | 0.00 | 0.00 | 50 | 1006.3 |
| 20260506161002 | 23 | 164 | 4.8 | 25.7 | 0.00 | 0.00 | 0.00 | 50 | 1006.3 |
| 20260506160501 | 23 | 165 | 1.6 | 16.1 | 0.00 | 0.00 | 0.00 | 49 | 1006.5 |
| 20260506160002 | 23 | 165 | 1.6 | 12.9 | 0.00 | 0.00 | 0.00 | 49 | 1006.4 |
| 20260506155501 | 23 | 161 | 1.6 | 14.5 | 0.00 | 0.00 | 0.00 | 49 | 1006.6 |
| 20260506155001 | 23 | 172 | 1.6 | 17.7 | 0.00 | 0.00 | 0.00 | 49 | 1006.6 |
| 20260506154500 | 23 | 164 | 1.6 | 17.7 | 0.00 | 0.00 | 0.00 | 49 | 1006.8 |
| 20260506154002 | 23 | 146 | 1.6 | 16.1 | 0.00 | 0.00 | 0.00 | 49 | 1006.7 |
| 20260506153500 | 23 | 157 | 1.6 | 16.1 | 0.00 | 0.00 | 0.00 | 49 | 1006.7 |
| 20260506153002 | 23 | 156 | 1.6 | 16.1 | 0.00 | 0.00 | 0.00 | 50 | 1006.8 |
| 20260506152501 | 23 | 166 | 3.2 | 19.3 | 0.00 | 0.00 | 0.00 | 50 | 1007.0 |
| 20260506152001 | 23 | 158 | 4.8 | 24.1 | 0.00 | 0.00 | 0.00 | 50 | 1006.9 |
| 20260506151502 | 23 | 151 | 4.8 | 24.1 | 0.00 | 0.00 | 0.00 | 51 | 1007.0 |
| 20260506151002 | 23 | 148 | 4.8 | 27.4 | 0.00 | 0.00 | 0.00 | 53 | 1007.0 |
| 20260506150500 | 23 | 150 | 3.2 | 27.4 | 0.00 | 0.00 | 0.00 | 52 | 1006.9 |
| 20260506150002 | 23 | 163 | 1.6 | 25.7 | 0.00 | 0.00 | 0.00 | 53 | 1007.1 |
| 20260506145501 | 23 | 166 | 1.6 | 19.3 | 0.00 | 0.00 | 0.00 | 53 | 1007.1 |
| 20260506145002 | 23 | 157 | 1.6 | 17.7 | 0.00 | 0.00 | 0.00 | 53 | 1007.2 |
| 20260506144501 | 23 | 141 | 1.6 | 20.9 | 0.00 | 0.00 | 0.00 | 54 | 1007.2 |
| 20260506144002 | 23 | 131 | 4.8 | 32.2 | 0.00 | 0.00 | 0.00 | 53 | 1007.1 |
| 20260506143501 | 23 | 139 | 4.8 | 32.2 | 0.00 | 0.00 | 0.00 | 53 | 1007.1 |
| 20260506142501 | 23 | 152 | 4.8 | 24.1 | 0.00 | 0.00 | 0.00 | 52 | 1007.2 |
| 20260506142002 | 23 | 153 | 6.4 | 24.1 | 0.00 | 0.00 | 0.00 | 52 | 1007.4 |
| 20260506141501 | 24 | 154 | 6.4 | 22.5 | 0.00 | 0.00 | 0.00 | 51 | 1007.4 |
| 20260506141003 | 24 | 154 | 6.4 | 24.1 | 0.00 | 0.00 | 0.00 | 51 | 1007.5 |
| 20260506140501 | 24 | 153 | 6.4 | 27.4 | 0.00 | 0.00 | 0.00 | 51 | 1007.5 |
| 20260506135503 | 24 | 155 | 3.2 | 25.7 | 0.00 | 0.00 | 0.00 | 52 | 1007.5 |
| 20260506135003 | 24 | 156 | 3.2 | 25.7 | 0.00 | 0.00 | 0.00 | 51 | 1007.6 |
| 20260506134502 | 24 | 155 | 6.4 | 25.7 | 0.00 | 0.00 | 0.00 | 52 | 1007.6 |
| 20260506134002 | 24 | 151 | 4.8 | 27.4 | 0.00 | 0.00 | 0.00 | 51 | 1007.6 |
| 20260506133502 | 24 | 159 | 1.6 | 27.4 | 0.00 | 0.00 | 0.00 | 51 | 1007.7 |
| 20260506133002 | 23 | 151 | 4.8 | 24.1 | 0.00 | 0.00 | 0.00 | 54 | 1007.8 |
| 20260506132501 | 23 | 163 | 6.4 | 29.0 | 0.00 | 0.00 | 0.00 | 53 | 1007.8 |
| 20260506132001 | 23 | 187 | 6.4 | 29.0 | 0.00 | 0.00 | 0.00 | 54 | 1007.7 |
| 20260506131500 | 23 | 178 | 6.4 | 27.4 | 0.00 | 0.00 | 0.00 | 53 | 1008.0 |
| 20260506131001 | 23 | 167 | 8.0 | 27.4 | 0.00 | 0.00 | 0.00 | 52 | 1008.0 |
| 20260506130501 | 24 | 163 | 8.0 | 33.8 | 0.00 | 0.00 | 0.00 | 51 | 1008.0 |
| 20260506130001 | 23 | 161 | 6.4 | 33.8 | 0.00 | 0.00 | 0.00 | 52 | 1007.9 |
| 20260506125500 | 23 | 160 | 6.4 | 22.5 | 0.00 | 0.00 | 0.00 | 54 | 1008.0 |
| 20260506125002 | 23 | 166 | 8.0 | 32.2 | 0.00 | 0.00 | 0.00 | 54 | 1008.2 |
| 20260506124501 | 23 | 169 | 8.0 | 32.2 | 0.00 | 0.00 | 0.00 | 54 | 1008.2 |
| 20260506124001 | 23 | 166 | 8.0 | 25.7 | 0.00 | 0.00 | 0.00 | 54 | 1008.3 |
| 20260506123501 | 23 | 158 | 6.4 | 25.7 | 0.00 | 0.00 | 0.00 | 53 | 1008.3 |
| 20260506122501 | 24 | 157 | 1.6 | 22.5 | 0.00 | 0.00 | 0.00 | 54 | 1008.3 |
| 20260506122003 | 23 | 162 | 1.6 | 22.5 | 0.00 | 0.00 | 0.00 | 54 | 1008.3 |
| 20260506121500 | 23 | 170 | 3.2 | 22.5 | 0.00 | 0.00 | 0.00 | 55 | 1008.3 |
| 20260506121002 | 23 | 189 | 6.4 | 29.0 | 0.00 | 0.00 | 0.00 | 55 | 1008.4 |
| 20260506120501 | 23 | 195 | 4.8 | 29.0 | 0.00 | 0.00 | 0.00 | 54 | 1008.7 |
| 20260506120002 | 23 | 178 | 3.2 | 20.9 | 0.00 | 0.00 | 0.00 | 54 | 1008.6 |
| 20260506115501 | 23 | 165 | 4.8 | 20.9 | 0.00 | 0.00 | 0.00 | 54 | 1008.6 |
| 20260506115003 | 23 | 170 | 4.8 | 25.7 | 0.00 | 0.00 | 0.00 | 55 | 1008.6 |
| 20260506114502 | 23 | 171 | 3.2 | 25.7 | 0.00 | 0.00 | 0.00 | 56 | 1008.6 |
| 20260506112002 | 23 | 196 | 1.6 | 20.9 | 0.00 | 0.00 | 0.00 | 54 | 1008.8 |
| 20260506111501 | 23 | 198 | 1.6 | 17.7 | 0.00 | 0.00 | 0.00 | 54 | 1008.8 |
| 20260506111002 | 23 | 186 | 1.6 | 16.1 | 0.00 | 0.00 | 0.00 | 55 | 1008.9 |
| 20260506110501 | 22 | 198 | 1.6 | 19.3 | 0.00 | 0.00 | 0.00 | 56 | 1009.0 |
| 20260506110003 | 22 | 206 | 0.0 | 19.3 | 0.00 | 0.00 | 0.00 | 56 | 1008.8 |
| 20260506105501 | 23 | 183 | 1.6 | 11.3 | 0.00 | 0.00 | 0.00 | 56 | 1009.0 |
| 20260506105002 | 23 | 193 | 3.2 | 22.5 | 0.00 | 0.00 | 0.00 | 55 | 1009.0 |
| 20260506104502 | 23 | 197 | 3.2 | 22.5 | 0.00 | 0.00 | 0.00 | 56 | 1009.1 |
| 20260506104002 | 23 | 199 | 3.2 | 24.1 | 0.00 | 0.00 | 0.00 | 56 | 1009.0 |
| 20260506103501 | 23 | 198 | 3.2 | 24.1 | 0.00 | 0.00 | 0.00 | 57 | 1009.0 |
| 20260506103002 | 22 | 198 | 1.6 | 17.7 | 0.00 | 0.00 | 0.00 | 56 | 1009.0 |
| 20260506102502 | 22 | 204 | 1.6 | 17.7 | 0.00 | 0.00 | 0.00 | 57 | 1009.2 |
| 20260506101501 | 22 | 202 | 1.6 | 16.1 | 0.00 | 0.00 | 0.00 | 58 | 1009.2 |
| 20260506101001 | 22 | 196 | 1.6 | 16.1 | 0.00 | 0.00 | 0.00 | 59 | 1009.2 |
| 20260506100501 | 21 | 198 | 0.0 | 16.1 | 0.00 | 0.00 | 0.00 | 59 | 1009.2 |
| 20260506100002 | 21 | 210 | 0.0 | 11.3 | 0.00 | 0.00 | 0.00 | 60 | 1009.3 |
| 20260506095501 | 21 | 201 | 1.6 | 20.9 | 0.00 | 0.00 | 0.00 | 61 | 1009.4 |
| 20260506095002 | 21 | 199 | 1.6 | 20.9 | 0.00 | 0.00 | 0.00 | 60 | 1009.3 |
| 20260506094501 | 21 | 207 | 0.0 | 4.8 | 0.00 | 0.00 | 0.00 | 61 | 1009.4 |
| 20260506094002 | 21 | 218 | 0.0 | 6.4 | 0.00 | 0.00 | 0.00 | 61 | 1009.5 |
| 20260506093501 | 21 | 220 | 0.0 | 14.5 | 0.00 | 0.00 | 0.00 | 61 | 1009.4 |
| 20260506093002 | 21 | 188 | 0.0 | 14.5 | 0.00 | 0.00 | 0.00 | 61 | 1009.4 |
| 20260506092501 | 21 | 185 | 0.0 | 12.9 | 0.00 | 0.00 | 0.00 | 62 | 1009.5 |
| 20260506092002 | 20 | 204 | 0.0 | 9.7 | 0.00 | 0.00 | 0.00 | 63 | 1009.5 |
| 20260506091503 | 20 | 197 | 0.0 | 9.7 | 0.00 | 0.00 | 0.00 | 63 | 1009.5 |
| 20260506091002 | 20 | 215 | 0.0 | 4.8 | 0.00 | 0.00 | 0.00 | 64 | 1009.5 |
| 20260506090501 | 20 | 210 | 0.0 | 4.8 | 0.00 | 0.00 | 0.00 | 65 | 1009.4 |
| 20260506090002 | 19 | 211 | 0.0 | 3.2 | 0.00 | 0.00 | 0.00 | 65 | 1009.5 |
| 20260506085501 | 19 | 222 | 0.0 | 3.2 | 0.00 | 0.00 | 0.00 | 66 | 1009.5 |
| 20260506084501 | 18 | 187 | 0.0 | 9.7 | 0.00 | 0.00 | 0.00 | 66 | 1009.5 |
| 20260506084003 | 18 | 203 | 0.0 | 9.7 | 0.00 | 0.00 | 0.00 | 66 | 1009.5 |
| 20260506083002 | 18 | 208 | 0.0 | 6.4 | 0.00 | 0.00 | 0.00 | 67 | 1009.5 |
| 20260506082501 | 18 | 210 | 0.0 | 6.4 | 0.00 | 0.00 | 0.00 | 67 | 1009.4 |
| 20260506082002 | 18 | 210 | 0.0 | 1.6 | 0.00 | 0.00 | 0.00 | 68 | 1009.5 |
| 20260506081501 | 18 | 204 | 0.0 | 8.0 | 0.00 | 0.00 | 0.00 | 67 | 1009.5 |
| 20260506080503 | 17 | 211 | 0.0 | 3.2 | 0.00 | 0.00 | 0.00 | 69 | 1009.3 |
| 20260506072501 | 17 | 0 | 0.0 | 0.0 | 0.00 | 0.00 | 0.00 | 70 | 1009.5 |
| 20260506072002 | 16 | 164 | 0.0 | 6.4 | 0.00 | 0.00 | 0.00 | 70 | 1009.6 |
| 20260506071501 | 16 | 166 | 0.0 | 6.4 | 0.00 | 0.00 | 0.00 | 70 | 1009.7 |
| 20260506071003 | 16 | 175 | 0.0 | 1.6 | 0.00 | 0.00 | 0.00 | 71 | 1009.7 |
| 20260506062501 | 15 | 205 | 0.0 | 6.4 | 0.00 | 0.00 | 0.00 | 73 | 1009.5 |
| 20260506061502 | 15 | 197 | 0.0 | 9.7 | 0.00 | 0.00 | 0.00 | 73 | 1009.7 |
| 20260506061002 | 15 | 196 | 0.0 | 9.7 | 0.00 | 0.00 | 0.00 | 74 | 1009.8 |
| 20260506060502 | 15 | 195 | 0.0 | 12.9 | 0.00 | 0.00 | 0.00 | 73 | 1009.7 |
| 20260506051002 | 14 | 0 | 0.0 | 0.0 | 0.00 | 0.00 | 0.00 | 76 | 1009.4 |
| 20260506050501 | 14 | 0 | 0.0 | 0.0 | 0.00 | 0.00 | 0.00 | 76 | 1009.2 |
| 20260506045003 | 13 | 0 | 0.0 | 0.0 | 0.00 | 0.00 | 0.00 | 77 | 1009.0 |
| 20260506043502 | 13 | 184 | 0.0 | 3.2 | 0.00 | 0.00 | 0.00 | 76 | 1009.0 |
| 20260506043002 | 13 | 184 | 0.0 | 3.2 | 0.00 | 0.00 | 0.00 | 76 | 1009.1 |
| 20260506042501 | 13 | 0 | 0.0 | 0.0 | 0.00 | 0.00 | 0.00 | 76 | 1009.1 |
| 20260506042002 | 13 | 0 | 0.0 | 0.0 | 0.00 | 0.00 | 0.00 | 75 | 1009.0 |
| 20260506041002 | 14 | 0 | 0.0 | 0.0 | 0.00 | 0.00 | 0.00 | 75 | 1009.0 |
| 20260506040502 | 14 | 0 | 0.0 | 0.0 | 0.00 | 0.00 | 0.00 | 75 | 1008.9 |
| 20260506035501 | 14 | 0 | 0.0 | 0.0 | 0.00 | 0.00 | 0.00 | 74 | 1008.9 |
| 20260506035003 | 14 | 0 | 0.0 | 0.0 | 0.00 | 0.00 | 0.00 | 74 | 1008.8 |
| 20260506034501 | 14 | 0 | 0.0 | 0.0 | 0.00 | 0.00 | 0.00 | 74 | 1008.8 |
| 20260506034003 | 14 | 0 | 0.0 | 0.0 | 0.00 | 0.00 | 0.00 | 74 | 1008.8 |
| 20260506033501 | 14 | 0 | 0.0 | 0.0 | 0.00 | 0.00 | 0.00 | 74 | 1008.7 |
| 20260506033002 | 14 | 223 | 0.0 | 1.6 | 0.00 | 0.00 | 0.00 | 74 | 1008.7 |
| 20260506032501 | 14 | 223 | 0.0 | 1.6 | 0.00 | 0.00 | 0.00 | 74 | 1008.8 |
| 20260506032002 | 14 | 171 | 0.0 | 4.8 | 0.00 | 0.00 | 0.00 | 73 | 1008.7 |
| 20260506031501 | 14 | 171 | 0.0 | 4.8 | 0.00 | 0.00 | 0.00 | 73 | 1008.6 |
| 20260506031002 | 14 | 192 | 0.0 | 1.6 | 0.00 | 0.00 | 0.00 | 73 | 1008.7 |
| 20260506030502 | 14 | 194 | 0.0 | 1.6 | 0.00 | 0.00 | 0.00 | 72 | 1008.6 |
| 20260506030003 | 14 | 200 | 0.0 | 1.6 | 0.00 | 0.00 | 0.00 | 72 | 1008.7 |
| 20260506025501 | 15 | 174 | 0.0 | 1.6 | 0.00 | 0.00 | 0.00 | 72 | 1008.6 |
| 20260506025003 | 15 | 174 | 0.0 | 1.6 | 0.00 | 0.00 | 0.00 | 72 | 1008.6 |
| 20260506024502 | 15 | 168 | 0.0 | 1.6 | 0.00 | 0.00 | 0.00 | 72 | 1008.6 |
| 20260506024003 | 15 | 168 | 0.0 | 1.6 | 0.00 | 0.00 | 0.00 | 72 | 1008.6 |
| 20260506023502 | 14 | 138 | 0.0 | 1.6 | 0.00 | 0.00 | 0.00 | 72 | 1008.6 |
| 20260506023003 | 14 | 127 | 0.0 | 1.6 | 0.00 | 0.00 | 0.00 | 72 | 1008.6 |
| 20260506022501 | 14 | 179 | 0.0 | 6.4 | 0.00 | 0.00 | 0.00 | 72 | 1008.5 |
| 20260506022002 | 14 | 178 | 0.0 | 6.4 | 0.00 | 0.00 | 0.00 | 72 | 1008.4 |
| 20260506021501 | 15 | 153 | 0.0 | 3.2 | 0.00 | 0.00 | 0.00 | 72 | 1008.5 |
| 20260506021002 | 15 | 156 | 0.0 | 3.2 | 0.00 | 0.00 | 0.00 | 71 | 1008.4 |
| 20260506020501 | 15 | 166 | 0.0 | 4.8 | 0.00 | 0.00 | 0.00 | 71 | 1008.4 |
| 20260506020002 | 15 | 160 | 1.6 | 12.9 | 0.00 | 0.00 | 0.00 | 71 | 1008.5 |
| 20260506015501 | 15 | 154 | 1.6 | 19.3 | 0.00 | 0.00 | 0.00 | 71 | 1008.5 |
| 20260506015002 | 15 | 156 | 1.6 | 19.3 | 0.00 | 0.00 | 0.00 | 71 | 1008.3 |
| 20260506014002 | 15 | 157 | 1.6 | 12.9 | 0.00 | 0.00 | 0.00 | 70 | 1008.5 |
| 20260506013502 | 15 | 163 | 1.6 | 12.9 | 0.00 | 0.00 | 0.00 | 70 | 1008.4 |
| 20260506013002 | 15 | 171 | 0.0 | 11.3 | 0.00 | 0.00 | 0.00 | 70 | 1008.3 |
| 20260506012501 | 15 | 162 | 1.6 | 22.5 | 0.00 | 0.00 | 0.00 | 70 | 1008.4 |
| 20260506011501 | 15 | 158 | 1.6 | 14.5 | 0.00 | 0.00 | 0.00 | 69 | 1008.2 |
| 20260506010502 | 15 | 154 | 3.2 | 24.1 | 0.00 | 0.00 | 0.00 | 69 | 1008.1 |
| 20260506005502 | 15 | 169 | 1.6 | 11.3 | 0.00 | 0.00 | 0.00 | 68 | 1008.1 |
| 20260506005003 | 15 | 166 | 0.0 | 11.3 | 0.00 | 0.00 | 0.00 | 68 | 1008.3 |
| 20260506004503 | 15 | 161 | 1.6 | 12.9 | 0.00 | 0.00 | 0.00 | 68 | 1008.2 |
| 20260506004003 | 15 | 159 | 3.2 | 17.7 | 0.00 | 0.00 | 0.00 | 68 | 1008.0 |
| 20260506003502 | 16 | 157 | 4.8 | 27.4 | 0.00 | 0.00 | 0.00 | 67 | 1007.8 |